Time;durP1;ratioP1;P1;durP2;ratioP2;P2;SDS_P1;SDS_P2;PMS_P1;PMS_P2;Temp;Humidity;BMP_temperature;BMP_pressure;BME280_temperature;BME280_humidity;BME280_pressure;Samples;Min_cycle;Max_cycle;Signal;HPM_P1;HPM_P2
2021/07/31 00:02:12;;;;;;;;;3.00;3.00;;;;;;;;5141286;27;44761;-75
2021/07/31 00:04:38;;;;;;;;;4.00;2.00;;;;;;;;5140061;27;45237;-76
2021/07/31 00:07:03;;;;;;;;;1.33;1.33;;;;;;;;5140212;27;45305;-75
2021/07/31 00:09:28;;;;;;;;;3.67;2.00;;;;;;;;5140056;27;44682;-75
2021/07/31 00:11:53;;;;;;;;;3.00;3.00;;;;;;;;5142406;27;44695;-75
2021/07/31 00:14:19;;;;;;;;;1.67;1.67;;;;;;;;5141961;27;44791;-76
2021/07/31 00:16:44;;;;;;;;;1.67;1.67;;;;;;;;5138322;27;46114;-76
2021/07/31 00:19:09;;;;;;;;;2.00;2.00;;;;;;;;5139149;27;46147;-75
2021/07/31 00:21:35;;;;;;;;;2.67;2.67;;;;;;;;5139460;27;44676;-75
2021/07/31 00:24:00;;;;;;;;;2.00;2.00;;;;;;;;5140473;27;46501;-75
2021/07/31 00:26:25;;;;;;;;;2.00;2.00;;;;;;;;5137872;27;48224;-75
2021/07/31 00:28:50;;;;;;;;;2.00;2.00;;;;;;;;5139756;27;45270;-74
2021/07/31 00:31:16;;;;;;;;;3.00;2.00;;;;;;;;5140358;27;44667;-75
2021/07/31 00:33:41;;;;;;;;;1.33;1.33;;;;;;;;5143420;27;45357;-75
2021/07/31 00:36:06;;;;;;;;;1.33;1.00;;;;;;;;5141989;27;45257;-76
2021/07/31 00:38:31;;;;;;;;;2.00;2.00;;;;;;;;5142136;27;45294;-75
2021/07/31 00:40:56;;;;;;;;;4.00;2.67;;;;;;;;5142128;27;44655;-76
2021/07/31 00:43:21;;;;;;;;;2.67;2.67;;;;;;;;5141897;27;45203;-76
2021/07/31 00:45:47;;;;;;;;;5.00;3.00;;;;;;;;5140881;27;45294;-75
2021/07/31 00:48:12;;;;;;;;;0.67;0.67;;;;;;;;5141718;27;44674;-75
2021/07/31 00:50:37;;;;;;;;;4.00;2.00;;;;;;;;5140340;27;45282;-75
2021/07/31 00:53:03;;;;;;;;;2.00;2.00;;;;;;;;5140637;27;46294;-74
2021/07/31 00:55:29;;;;;;;;;1.00;1.00;;;;;;;;5141407;27;46305;-75
2021/07/31 00:57:56;;;;;;;;;3.67;3.00;;;;;;;;5140480;27;44568;-75
2021/07/31 01:00:21;;;;;;;;;2.00;2.00;;;;;;;;5143049;27;44566;-75
2021/07/31 01:02:46;;;;;;;;;3.00;3.00;;;;;;;;5141990;27;45211;-75
2021/07/31 01:05:12;;;;;;;;;2.00;2.00;;;;;;;;5143348;27;46269;-75
2021/07/31 01:07:37;;;;;;;;;3.00;3.00;;;;;;;;5141794;27;45747;-75
2021/07/31 01:10:03;;;;;;;;;5.00;3.00;;;;;;;;5141821;27;45400;-77
2021/07/31 01:12:30;;;;;;;;;1.33;1.33;;;;;;;;5142018;27;44758;-75
2021/07/31 01:14:55;;;;;;;;;4.00;2.33;;;;;;;;5141160;27;46269;-75
2021/07/31 01:17:20;;;;;;;;;5.00;4.00;;;;;;;;5142592;27;44645;-75
2021/07/31 01:19:46;;;;;;;;;3.00;3.00;;;;;;;;5143372;27;44663;-75
2021/07/31 01:22:11;;;;;;;;;3.67;3.00;;;;;;;;5142626;27;45130;-75
2021/07/31 01:24:36;;;;;;;;;2.00;2.00;;;;;;;;5139317;27;47505;-75
2021/07/31 01:27:02;;;;;;;;;4.67;4.67;;;;;;;;5140722;27;44597;-75
2021/07/31 01:29:28;;;;;;;;;2.00;2.00;;;;;;;;5142814;27;44676;-76
2021/07/31 01:31:53;;;;;;;;;4.00;4.00;;;;;;;;5161612;27;45331;-75
2021/07/31 01:34:18;;;;;;;;;3.00;3.00;;;;;;;;5162216;27;48431;-75
2021/07/31 01:36:43;;;;;;;;;6.67;3.00;;;;;;;;5161619;27;44697;-75
2021/07/31 01:39:08;;;;;;;;;4.00;2.00;;;;;;;;5161164;27;45211;-75
2021/07/31 01:41:34;;;;;;;;;4.00;4.00;;;;;;;;5160773;27;44739;-75
2021/07/31 01:43:59;;;;;;;;;4.33;4.33;;;;;;;;5158543;27;46332;-75
2021/07/31 01:46:25;;;;;;;;;4.00;3.00;;;;;;;;5161946;27;44599;-75
2021/07/31 01:48:50;;;;;;;;;3.67;3.00;;;;;;;;5161491;27;44652;-75
2021/07/31 01:51:16;;;;;;;;;2.33;2.33;;;;;;;;5162509;27;44769;-75
2021/07/31 01:53:41;;;;;;;;;3.00;2.67;;;;;;;;5162688;27;46116;-75
2021/07/31 01:56:06;;;;;;;;;3.00;2.67;;;;;;;;5160734;27;45144;-76
2021/07/31 01:58:32;;;;;;;;;4.00;4.00;;;;;;;;5161096;27;44606;-75
2021/07/31 02:00:58;;;;;;;;;4.00;3.67;;;;;;;;5162140;27;45102;-75
2021/07/31 02:03:23;;;;;;;;;3.00;3.00;;;;;;;;5161814;27;47452;-75
2021/07/31 02:05:48;;;;;;;;;5.33;5.00;;;;;;;;5160938;27;44664;-75
2021/07/31 02:08:14;;;;;;;;;3.33;3.33;;;;;;;;5162274;27;44619;-77
2021/07/31 02:10:39;;;;;;;;;3.00;3.00;;;;;;;;5161367;27;46002;-75
2021/07/31 02:13:04;;;;;;;;;1.33;1.33;;;;;;;;5162752;27;46099;-75
2021/07/31 02:15:29;;;;;;;;;3.00;2.67;;;;;;;;5165307;27;45306;-75
2021/07/31 02:17:55;;;;;;;;;1.67;1.67;;;;;;;;5165284;27;44697;-75
2021/07/31 02:20:20;;;;;;;;;4.00;4.00;;;;;;;;5165128;27;44842;-75
2021/07/31 02:22:46;;;;;;;;;2.33;2.33;;;;;;;;5165489;27;46312;-75
2021/07/31 02:25:11;;;;;;;;;3.00;3.00;;;;;;;;5164972;27;44733;-76
2021/07/31 02:27:36;;;;;;;;;2.33;2.33;;;;;;;;5164168;27;44816;-75
2021/07/31 02:30:02;;;;;;;;;5.33;4.00;;;;;;;;5164840;27;45247;-75
2021/07/31 02:32:27;;;;;;;;;4.00;4.00;;;;;;;;5164814;27;45272;-75
2021/07/31 02:34:52;;;;;;;;;4.00;4.00;;;;;;;;5165475;27;44621;-75
2021/07/31 02:37:17;;;;;;;;;6.00;3.00;;;;;;;;5165026;27;44718;-75
2021/07/31 02:39:42;;;;;;;;;5.00;4.00;;;;;;;;5164919;27;45091;-75
2021/07/31 02:42:08;;;;;;;;;3.00;2.33;;;;;;;;5165338;27;45142;-76
2021/07/31 02:44:36;;;;;;;;;4.67;3.33;;;;;;;;5164894;27;44589;-75
2021/07/31 02:47:01;;;;;;;;;3.33;3.33;;;;;;;;5164640;27;44587;-76
2021/07/31 02:49:26;;;;;;;;;6.00;3.67;;;;;;;;5164374;27;45160;-75
2021/07/31 02:51:52;;;;;;;;;3.67;3.67;;;;;;;;5161492;27;48416;-75
2021/07/31 02:54:17;;;;;;;;;1.00;1.00;;;;;;;;5163771;27;44599;-75
2021/07/31 02:56:42;;;;;;;;;5.00;3.33;;;;;;;;5163934;27;44691;-75
2021/07/31 02:59:07;;;;;;;;;3.33;3.33;;;;;;;;5157736;27;45203;-76
2021/07/31 03:01:34;;;;;;;;;3.33;3.33;;;;;;;;5155338;27;47104;-76
2021/07/31 03:03:59;;;;;;;;;4.00;2.33;;;;;;;;5154287;27;45229;-75
2021/07/31 03:06:24;;;;;;;;;5.00;5.00;;;;;;;;5154455;27;44725;-76
2021/07/31 03:08:50;;;;;;;;;4.00;2.33;;;;;;;;5157609;27;45234;-77
2021/07/31 03:11:15;;;;;;;;;3.33;3.33;;;;;;;;5155639;27;45361;-76
2021/07/31 03:13:40;;;;;;;;;3.00;2.33;;;;;;;;5156160;27;45307;-75
2021/07/31 03:16:06;;;;;;;;;2.00;2.00;;;;;;;;5154628;27;45262;-75
2021/07/31 03:18:32;;;;;;;;;3.00;3.00;;;;;;;;5156668;27;45389;-76
2021/07/31 03:20:57;;;;;;;;;5.00;4.00;;;;;;;;5155824;27;45473;-76
2021/07/31 03:23:23;;;;;;;;;4.33;3.00;;;;;;;;5153340;27;45275;-76
2021/07/31 03:25:48;;;;;;;;;4.33;4.33;;;;;;;;5152865;27;45213;-75
2021/07/31 03:28:14;;;;;;;;;3.33;3.00;;;;;;;;5153205;27;46050;-76
2021/07/31 03:30:40;;;;;;;;;3.00;3.00;;;;;;;;5142535;27;46209;-75
2021/07/31 03:33:05;;;;;;;;;4.67;4.67;;;;;;;;5131812;27;45283;-76
2021/07/31 03:35:30;;;;;;;;;4.00;3.00;;;;;;;;5133814;27;45347;-75
2021/07/31 03:37:55;;;;;;;;;5.00;4.00;;;;;;;;5136061;27;45275;-76
2021/07/31 03:40:21;;;;;;;;;2.00;2.00;;;;;;;;5132249;27;45258;-75
2021/07/31 03:42:46;;;;;;;;;3.33;3.33;;;;;;;;5129748;27;45226;-75
2021/07/31 03:45:11;;;;;;;;;3.00;3.00;;;;;;;;5129062;27;45215;-75
2021/07/31 03:47:37;;;;;;;;;3.67;3.67;;;;;;;;5129864;27;45552;-76
2021/07/31 03:50:02;;;;;;;;;5.00;3.00;;;;;;;;5131164;27;45174;-75
2021/07/31 03:52:27;;;;;;;;;5.00;3.33;;;;;;;;5130720;27;45232;-75
2021/07/31 03:54:52;;;;;;;;;3.00;3.00;;;;;;;;5133915;27;45140;-76
2021/07/31 03:57:17;;;;;;;;;5.33;5.33;;;;;;;;5134031;27;45551;-75
2021/07/31 03:59:43;;;;;;;;;3.00;3.00;;;;;;;;5135276;27;45447;-75
2021/07/31 04:02:08;;;;;;;;;3.00;3.00;;;;;;;;5135743;27;44621;-75
2021/07/31 04:04:34;;;;;;;;;3.00;3.00;;;;;;;;5133340;27;45295;-75
2021/07/31 04:06:59;;;;;;;;;5.00;3.00;;;;;;;;5137584;27;45250;-75
2021/07/31 04:09:25;;;;;;;;;5.67;5.00;;;;;;;;5141483;27;45164;-76
2021/07/31 04:11:50;;;;;;;;;5.00;4.00;;;;;;;;5136420;27;44648;-76
2021/07/31 04:14:15;;;;;;;;;3.00;3.00;;;;;;;;5137223;27;45380;-75
2021/07/31 04:16:40;;;;;;;;;4.00;4.00;;;;;;;;5133101;27;47522;-75
2021/07/31 04:19:06;;;;;;;;;3.00;3.00;;;;;;;;5130519;27;45290;-76
2021/07/31 04:21:31;;;;;;;;;5.00;4.67;;;;;;;;5131792;27;45283;-76
2021/07/31 04:23:56;;;;;;;;;5.00;3.67;;;;;;;;5130294;27;45593;-75
2021/07/31 04:26:21;;;;;;;;;3.67;3.00;;;;;;;;5130074;27;45301;-75
2021/07/31 04:28:46;;;;;;;;;3.00;3.00;;;;;;;;5131292;27;46143;-75
2021/07/31 04:31:13;;;;;;;;;5.00;5.00;;;;;;;;5133691;27;45785;-76
2021/07/31 04:33:38;;;;;;;;;3.00;3.00;;;;;;;;5132411;27;45230;-76
2021/07/31 04:36:04;;;;;;;;;4.00;3.00;;;;;;;;5132984;27;45191;-75
2021/07/31 04:38:30;;;;;;;;;3.33;3.33;;;;;;;;5132961;27;48886;-76
2021/07/31 04:40:55;;;;;;;;;4.33;3.00;;;;;;;;5135573;27;45229;-76
2021/07/31 04:43:20;;;;;;;;;6.33;4.33;;;;;;;;5134698;27;44891;-76
2021/07/31 04:45:46;;;;;;;;;3.33;3.33;;;;;;;;5134654;27;44716;-76
2021/07/31 04:48:11;;;;;;;;;4.00;4.00;;;;;;;;5133692;27;45306;-75
2021/07/31 04:50:36;;;;;;;;;6.00;3.67;;;;;;;;5133384;27;44588;-76
2021/07/31 04:53:01;;;;;;;;;4.00;4.00;;;;;;;;5133324;27;44640;-75
2021/07/31 04:55:26;;;;;;;;;3.33;3.33;;;;;;;;5133864;27;45264;-76
2021/07/31 04:57:52;;;;;;;;;3.00;3.00;;;;;;;;5134395;27;45202;-76
2021/07/31 05:00:17;;;;;;;;;5.00;4.67;;;;;;;;5132065;27;45147;-76
2021/07/31 05:02:42;;;;;;;;;6.00;5.33;;;;;;;;5129695;27;45230;-76
2021/07/31 05:05:08;;;;;;;;;7.00;5.00;;;;;;;;5132878;27;45522;-76
2021/07/31 05:07:33;;;;;;;;;3.00;3.00;;;;;;;;5132569;27;45604;-76
2021/07/31 05:09:58;;;;;;;;;3.67;3.67;;;;;;;;5129882;27;46219;-75
2021/07/31 05:12:23;;;;;;;;;3.67;3.00;;;;;;;;5130772;27;45316;-75
2021/07/31 05:14:49;;;;;;;;;3.00;3.00;;;;;;;;5133256;27;45400;-76
2021/07/31 05:17:14;;;;;;;;;6.33;6.33;;;;;;;;5135143;27;46120;-76
2021/07/31 05:19:39;;;;;;;;;3.33;3.33;;;;;;;;5134732;27;45325;-76
2021/07/31 05:22:05;;;;;;;;;3.00;3.00;;;;;;;;5132599;27;45339;-76
2021/07/31 05:24:30;;;;;;;;;3.00;3.00;;;;;;;;5134966;27;45231;-75
2021/07/31 05:26:55;;;;;;;;;5.67;4.33;;;;;;;;5136081;27;45233;-76
2021/07/31 05:29:20;;;;;;;;;4.00;3.00;;;;;;;;5135877;27;45364;-75
2021/07/31 05:31:45;;;;;;;;;4.00;4.00;;;;;;;;5157785;27;44664;-76
2021/07/31 05:34:10;;;;;;;;;4.67;4.00;;;;;;;;5157369;27;47295;-76
2021/07/31 05:36:37;;;;;;;;;4.33;4.33;;;;;;;;5157634;27;45222;-76
2021/07/31 05:39:02;;;;;;;;;4.00;4.00;;;;;;;;5161056;27;44638;-76
2021/07/31 05:41:27;;;;;;;;;3.67;3.67;;;;;;;;5158094;27;45222;-76
2021/07/31 05:43:53;;;;;;;;;6.67;6.00;;;;;;;;5157677;27;45361;-76
2021/07/31 05:46:18;;;;;;;;;4.00;4.00;;;;;;;;5158001;27;45566;-76
2021/07/31 05:48:44;;;;;;;;;4.67;3.33;;;;;;;;5157812;27;45870;-77
2021/07/31 05:51:15;;;;;;;;;3.67;3.67;;;;;;;;5158080;27;44623;-75
2021/07/31 05:53:41;;;;;;;;;4.00;4.00;;;;;;;;5157414;27;46276;-75
2021/07/31 05:56:07;;;;;;;;;4.00;4.00;;;;;;;;5160438;27;45300;-75
2021/07/31 05:58:32;;;;;;;;;4.67;4.00;;;;;;;;5158482;27;44697;-76
2021/07/31 06:00:57;;;;;;;;;4.00;4.00;;;;;;;;5158960;27;45238;-76
2021/07/31 06:03:22;;;;;;;;;5.67;4.33;;;;;;;;5162353;27;45307;-75
2021/07/31 06:05:48;;;;;;;;;4.33;4.33;;;;;;;;5161159;27;45344;-76
2021/07/31 06:08:13;;;;;;;;;5.00;4.33;;;;;;;;5160397;27;45285;-76
2021/07/31 06:10:38;;;;;;;;;5.00;4.00;;;;;;;;5159565;27;44548;-75
2021/07/31 06:13:04;;;;;;;;;5.33;5.33;;;;;;;;5159970;27;45209;-75
2021/07/31 06:15:30;;;;;;;;;3.00;3.00;;;;;;;;5159089;27;45389;-76
2021/07/31 06:17:55;;;;;;;;;5.67;5.00;;;;;;;;5161072;27;44579;-75
2021/07/31 06:20:20;;;;;;;;;6.00;6.00;;;;;;;;5159805;27;45190;-75
2021/07/31 06:22:45;;;;;;;;;5.00;4.67;;;;;;;;5159253;27;45114;-75
2021/07/31 06:25:11;;;;;;;;;7.00;5.00;;;;;;;;5161172;27;45531;-76
2021/07/31 06:27:36;;;;;;;;;5.67;5.33;;;;;;;;5160628;27;45223;-75
2021/07/31 06:30:01;;;;;;;;;4.67;4.67;;;;;;;;5160216;27;45355;-75
2021/07/31 06:32:26;;;;;;;;;3.00;3.00;;;;;;;;5160946;27;44797;-76
2021/07/31 06:34:51;;;;;;;;;5.00;5.00;;;;;;;;5162336;27;45187;-76
2021/07/31 06:37:17;;;;;;;;;5.00;4.00;;;;;;;;5161941;27;46147;-75
2021/07/31 06:39:42;;;;;;;;;6.33;6.33;;;;;;;;5160557;27;44670;-76
2021/07/31 06:42:07;;;;;;;;;5.33;5.33;;;;;;;;5160582;27;44733;-75
2021/07/31 06:44:32;;;;;;;;;5.00;5.00;;;;;;;;5160994;27;45022;-75
2021/07/31 06:46:57;;;;;;;;;7.00;6.00;;;;;;;;5159312;27;45723;-76
2021/07/31 06:49:23;;;;;;;;;5.67;5.67;;;;;;;;5160946;27;44679;-75
2021/07/31 06:51:48;;;;;;;;;5.33;5.33;;;;;;;;5159704;27;46147;-75
2021/07/31 06:54:13;;;;;;;;;7.00;6.00;;;;;;;;5161136;27;46067;-75
2021/07/31 06:56:38;;;;;;;;;5.67;5.67;;;;;;;;5161972;27;44645;-76
2021/07/31 06:59:04;;;;;;;;;6.00;5.33;;;;;;;;5163670;27;44643;-75
2021/07/31 07:01:29;;;;;;;;;10.33;7.33;;;;;;;;5159646;27;44761;-75
2021/07/31 07:03:55;;;;;;;;;5.33;5.33;;;;;;;;5161075;27;45489;-75
2021/07/31 07:06:20;;;;;;;;;6.33;5.67;;;;;;;;5164069;27;45238;-75
2021/07/31 07:08:46;;;;;;;;;6.00;6.00;;;;;;;;5164556;27;44642;-75
2021/07/31 07:11:12;;;;;;;;;5.67;5.67;;;;;;;;5162788;27;44826;-76
2021/07/31 07:13:38;;;;;;;;;6.00;6.00;;;;;;;;5164345;27;47041;-76
2021/07/31 07:16:04;;;;;;;;;4.00;4.00;;;;;;;;5165415;27;44719;-76
2021/07/31 07:18:29;;;;;;;;;6.00;5.00;;;;;;;;5159714;27;45200;-76
2021/07/31 07:20:54;;;;;;;;;5.67;5.67;;;;;;;;5163397;27;44964;-76
2021/07/31 07:23:19;;;;;;;;;8.67;7.00;;;;;;;;5163276;27;45517;-75
2021/07/31 07:25:44;;;;;;;;;7.67;7.67;;;;;;;;5160733;27;45695;-75
2021/07/31 07:28:10;;;;;;;;;5.00;5.00;;;;;;;;5162422;27;45199;-74
2021/07/31 07:30:36;;;;;;;;;6.33;6.33;;;;;;;;5151281;27;45038;-75
2021/07/31 07:33:02;;;;;;;;;6.67;6.33;;;;;;;;5142916;27;45024;-75
2021/07/31 07:35:28;;;;;;;;;6.33;5.00;;;;;;;;5142812;27;45245;-75
2021/07/31 07:37:53;;;;;;;;;6.67;5.67;;;;;;;;5141842;27;45394;-75
2021/07/31 07:40:18;;;;;;;;;7.00;7.00;;;;;;;;5140964;27;47033;-74
2021/07/31 07:42:43;;;;;;;;;6.67;6.67;;;;;;;;5141614;27;47101;-75
2021/07/31 07:45:09;;;;;;;;;5.00;5.00;;;;;;;;5141860;27;44670;-75
2021/07/31 07:47:34;;;;;;;;;5.67;5.67;;;;;;;;5142045;27;45580;-74
2021/07/31 07:50:00;;;;;;;;;7.67;7.67;;;;;;;;5143345;27;45257;-75
2021/07/31 07:52:25;;;;;;;;;7.33;6.67;;;;;;;;5143144;27;45044;-75
2021/07/31 07:54:50;;;;;;;;;9.00;6.00;;;;;;;;5140897;27;44608;-75
2021/07/31 07:57:15;;;;;;;;;6.67;6.00;;;;;;;;5142391;27;44810;-75
2021/07/31 07:59:41;;;;;;;;;7.67;6.00;;;;;;;;5142346;27;45287;-75
2021/07/31 08:02:06;;;;;;;;;5.00;5.00;;;;;;;;5142814;27;45432;-75
2021/07/31 08:04:33;;;;;;;;;6.00;6.00;;;;;;;;5142262;27;45291;-74
2021/07/31 08:06:58;;;;;;;;;6.00;4.67;;;;;;;;5140093;27;44760;-75
2021/07/31 08:09:23;;;;;;;;;6.00;6.00;;;;;;;;5142000;27;45213;-74
2021/07/31 08:11:48;;;;;;;;;7.00;7.00;;;;;;;;5140913;27;45175;-74
2021/07/31 08:14:14;;;;;;;;;7.00;5.67;;;;;;;;5142005;27;44615;-75
2021/07/31 08:16:40;;;;;;;;;4.67;4.67;;;;;;;;5142764;27;44612;-75
2021/07/31 08:19:06;;;;;;;;;5.67;5.00;;;;;;;;5140472;27;44796;-75
2021/07/31 08:21:32;;;;;;;;;6.33;4.00;;;;;;;;5139795;27;46277;-75
2021/07/31 08:23:57;;;;;;;;;8.00;7.00;;;;;;;;5140284;27;44982;-75
2021/07/31 08:26:22;;;;;;;;;5.00;5.00;;;;;;;;5141542;27;45273;-75
2021/07/31 08:28:50;;;;;;;;;5.33;5.33;;;;;;;;5140892;27;46027;-75
2021/07/31 08:31:15;;;;;;;;;5.67;5.67;;;;;;;;5138139;27;45405;-75
2021/07/31 08:33:41;;;;;;;;;5.33;4.67;;;;;;;;5138604;27;45368;-75
2021/07/31 08:36:06;;;;;;;;;4.33;4.33;;;;;;;;5133632;27;45241;-75
2021/07/31 08:38:32;;;;;;;;;8.33;8.33;;;;;;;;5135075;27;45246;-74
2021/07/31 08:40:58;;;;;;;;;7.00;7.00;;;;;;;;5136724;27;45299;-76
2021/07/31 08:43:23;;;;;;;;;6.00;5.00;;;;;;;;5134696;27;45199;-74
2021/07/31 08:45:49;;;;;;;;;5.00;5.00;;;;;;;;5138771;27;45205;-75
2021/07/31 08:48:15;;;;;;;;;7.67;5.00;;;;;;;;5136611;27;47372;-76
2021/07/31 08:50:41;;;;;;;;;3.33;3.33;;;;;;;;5137602;27;45151;-75
2021/07/31 08:53:07;;;;;;;;;5.67;5.00;;;;;;;;5136307;27;45341;-74
2021/07/31 08:55:32;;;;;;;;;7.00;6.00;;;;;;;;5137672;27;44624;-76
2021/07/31 08:58:01;;;;;;;;;5.33;5.33;;;;;;;;5139414;27;46389;-75
2021/07/31 09:00:26;;;;;;;;;5.00;5.00;;;;;;;;5138660;27;45314;-74
2021/07/31 09:02:52;;;;;;;;;4.33;4.33;;;;;;;;5134035;27;44666;-77
2021/07/31 09:05:34;;;;;;;;;5.33;5.33;;;;;;;;5141079;27;44695;-75
2021/07/31 09:08:00;;;;;;;;;6.33;6.33;;;;;;;;5141472;27;45342;-76
2021/07/31 09:10:25;;;;;;;;;10.00;7.00;;;;;;;;5140282;27;46122;-76
2021/07/31 09:12:54;;;;;;;;;6.00;6.00;;;;;;;;5141763;27;45272;-75
2021/07/31 09:15:39;;;;;;;;;5.00;5.00;;;;;;;;5142628;27;44626;-76
2021/07/31 09:18:20;;;;;;;;;6.00;6.00;;;;;;;;5142531;27;45198;-75
2021/07/31 09:20:55;;;;;;;;;4.33;4.33;;;;;;;;5141675;27;45276;-75
2021/07/31 09:23:20;;;;;;;;;5.67;5.00;;;;;;;;5137104;27;44678;-76
2021/07/31 09:26:00;;;;;;;;;6.33;6.00;;;;;;;;5140130;27;44713;-75
2021/07/31 09:28:25;;;;;;;;;4.33;4.00;;;;;;;;5142736;27;44952;-75
2021/07/31 09:30:50;;;;;;;;;4.67;4.67;;;;;;;;5143069;27;46271;-75
2021/07/31 09:33:17;;;;;;;;;3.67;3.33;;;;;;;;5142237;27;44578;-75
2021/07/31 09:35:42;;;;;;;;;6.67;6.67;;;;;;;;5141175;27;44599;-75
2021/07/31 09:38:07;;;;;;;;;4.67;4.67;;;;;;;;5140881;27;46085;-76
2021/07/31 09:40:32;;;;;;;;;5.67;5.67;;;;;;;;5141335;27;45152;-75
2021/07/31 09:43:16;;;;;;;;;6.00;6.00;;;;;;;;5141814;27;45140;-75
2021/07/31 09:45:42;;;;;;;;;4.00;4.00;;;;;;;;5141075;27;45201;-75
2021/07/31 09:48:08;;;;;;;;;4.67;3.67;;;;;;;;5141466;27;44765;-75
2021/07/31 09:50:37;;;;;;;;;4.00;4.00;;;;;;;;5141989;27;45072;-75
2021/07/31 09:53:07;;;;;;;;;6.33;6.00;;;;;;;;5138032;27;44672;-76
2021/07/31 09:55:33;;;;;;;;;6.00;4.33;;;;;;;;5143359;27;44677;-76
2021/07/31 09:57:58;;;;;;;;;6.00;6.00;;;;;;;;5142316;27;44774;-76
2021/07/31 10:00:23;;;;;;;;;7.00;6.00;;;;;;;;5139908;27;46634;-75
2021/07/31 10:02:48;;;;;;;;;3.67;3.67;;;;;;;;5141375;27;45315;-75
2021/07/31 10:05:16;;;;;;;;;5.00;5.00;;;;;;;;5140090;27;45270;-76
2021/07/31 10:07:42;;;;;;;;;7.33;5.67;;;;;;;;5140980;27;45315;-75
2021/07/31 10:10:07;;;;;;;;;7.00;6.67;;;;;;;;5142115;27;45176;-75
2021/07/31 10:12:34;;;;;;;;;3.00;3.00;;;;;;;;5143087;27;45227;-74
2021/07/31 10:15:00;;;;;;;;;5.00;4.67;;;;;;;;5141137;27;44571;-76
2021/07/31 10:17:29;;;;;;;;;4.33;4.33;;;;;;;;5142148;27;45875;-75
2021/07/31 10:19:54;;;;;;;;;7.00;7.00;;;;;;;;5143059;27;45175;-76
2021/07/31 10:22:38;;;;;;;;;4.00;4.00;;;;;;;;5142371;27;45363;-75
2021/07/31 10:25:07;;;;;;;;;4.00;4.00;;;;;;;;5140824;27;44762;-76
2021/07/31 10:27:33;;;;;;;;;5.00;5.00;;;;;;;;5141403;27;45041;-75
2021/07/31 10:29:59;;;;;;;;;4.67;4.67;;;;;;;;5141529;27;46030;-74
2021/07/31 10:32:32;;;;;;;;;6.00;5.67;;;;;;;;5139426;27;44695;-76
2021/07/31 10:35:08;;;;;;;;;4.00;4.00;;;;;;;;5140806;27;45277;-75
2021/07/31 10:37:38;;;;;;;;;5.00;5.00;;;;;;;;5144010;27;46211;-75
2021/07/31 10:40:04;;;;;;;;;7.00;7.00;;;;;;;;5146944;27;46071;-75
2021/07/31 10:42:58;;;;;;;;;6.00;5.00;;;;;;;;5146890;27;45293;-75
2021/07/31 10:45:29;;;;;;;;;6.00;4.00;;;;;;;;5140309;27;44721;-75
2021/07/31 10:47:55;;;;;;;;;5.33;5.33;;;;;;;;5144631;27;45458;-75
2021/07/31 10:50:23;;;;;;;;;8.00;7.00;;;;;;;;5144479;27;45569;-75
2021/07/31 10:53:06;;;;;;;;;4.67;4.67;;;;;;;;5140224;27;44977;-75
2021/07/31 10:55:37;;;;;;;;;6.67;6.67;;;;;;;;5144954;27;44646;-75
2021/07/31 10:58:05;;;;;;;;;5.00;5.00;;;;;;;;5144368;27;46036;-75
2021/07/31 11:00:34;;;;;;;;;8.67;6.00;;;;;;;;5145291;27;45135;-75
2021/07/31 11:03:03;;;;;;;;;3.00;2.00;;;;;;;;5144501;27;44627;-76
2021/07/31 11:05:43;;;;;;;;;5.33;5.33;;;;;;;;5144143;27;44635;-75
2021/07/31 11:08:08;;;;;;;;;6.00;6.00;;;;;;;;5141464;27;45198;-77
2021/07/31 11:10:38;;;;;;;;;5.00;5.00;;;;;;;;5145339;27;47370;-75
2021/07/31 11:13:03;;;;;;;;;5.33;5.33;;;;;;;;5145456;27;44739;-75
2021/07/31 11:15:28;;;;;;;;;4.00;4.00;;;;;;;;5143060;27;44630;-75
2021/07/31 11:17:54;;;;;;;;;4.00;4.00;;;;;;;;5141651;27;45160;-75
2021/07/31 11:20:40;;;;;;;;;6.00;4.67;;;;;;;;5143617;27;47284;-75
2021/07/31 11:23:07;;;;;;;;;6.67;6.67;;;;;;;;5145669;27;44624;-75
2021/07/31 11:25:32;;;;;;;;;2.00;2.00;;;;;;;;5144810;27;44628;-74
2021/07/31 11:28:04;;;;;;;;;6.00;5.67;;;;;;;;5143495;27;45311;-75
2021/07/31 11:30:36;;;;;;;;;6.00;5.33;;;;;;;;5143162;27;45284;-75
2021/07/31 11:33:20;;;;;;;;;5.00;4.33;;;;;;;;5139702;27;44661;-75
2021/07/31 11:35:45;;;;;;;;;6.00;6.00;;;;;;;;5142733;27;45246;-75
2021/07/31 11:38:26;;;;;;;;;4.67;4.67;;;;;;;;5142580;27;44898;-75
2021/07/31 11:41:00;;;;;;;;;5.00;5.00;;;;;;;;5141667;27;48185;-75
2021/07/31 11:43:26;;;;;;;;;4.00;4.00;;;;;;;;5139686;27;45475;-74
2021/07/31 11:45:51;;;;;;;;;4.00;4.00;;;;;;;;5137936;27;44684;-75
2021/07/31 11:48:16;;;;;;;;;6.00;5.67;;;;;;;;5141807;27;45296;-75
2021/07/31 11:51:01;;;;;;;;;3.33;3.33;;;;;;;;5141069;27;45322;-76
2021/07/31 11:53:26;;;;;;;;;4.33;4.33;;;;;;;;5141104;27;45168;-75
2021/07/31 11:55:51;;;;;;;;;5.33;5.33;;;;;;;;5139888;27;45215;-75
2021/07/31 11:58:17;;;;;;;;;4.00;4.00;;;;;;;;5140602;27;46300;-75
2021/07/31 12:00:42;;;;;;;;;7.00;5.00;;;;;;;;5142360;27;45512;-76
2021/07/31 12:03:33;;;;;;;;;6.00;6.00;;;;;;;;5141340;27;44598;-75
2021/07/31 12:05:58;;;;;;;;;5.00;4.33;;;;;;;;5144315;27;44616;-76
2021/07/31 12:08:43;;;;;;;;;4.67;4.67;;;;;;;;5143409;27;45393;-75
2021/07/31 12:11:08;;;;;;;;;5.33;4.00;;;;;;;;5143535;27;45065;-75
2021/07/31 12:13:34;;;;;;;;;4.00;4.00;;;;;;;;5143188;27;45285;-75
2021/07/31 12:15:59;;;;;;;;;5.00;5.00;;;;;;;;5142110;27;45123;-76
2021/07/31 12:18:28;;;;;;;;;5.00;5.00;;;;;;;;5142179;27;45964;-78
2021/07/31 12:20:54;;;;;;;;;6.00;6.00;;;;;;;;5142214;27;47068;-76
2021/07/31 12:23:32;;;;;;;;;3.00;3.00;;;;;;;;5141753;27;45422;-75
2021/07/31 12:25:58;;;;;;;;;3.00;3.00;;;;;;;;5136881;27;45274;-76
2021/07/31 12:28:39;;;;;;;;;7.33;6.33;;;;;;;;5141262;27;44746;-74
2021/07/31 12:31:20;;;;;;;;;6.00;6.00;;;;;;;;5150597;27;47329;-75
2021/07/31 12:33:46;;;;;;;;;5.00;4.33;;;;;;;;5161953;27;45253;-75
2021/07/31 12:36:11;;;;;;;;;6.00;5.00;;;;;;;;5159755;27;44661;-75
2021/07/31 12:38:36;;;;;;;;;5.00;4.00;;;;;;;;5155617;27;44757;-75
2021/07/31 12:41:02;;;;;;;;;4.00;4.00;;;;;;;;5159695;27;46135;-76
2021/07/31 12:43:28;;;;;;;;;4.33;3.67;;;;;;;;5163518;27;45226;-75
2021/07/31 12:45:54;;;;;;;;;4.00;4.00;;;;;;;;5154913;27;45320;-75
2021/07/31 12:48:20;;;;;;;;;3.00;3.00;;;;;;;;5156020;27;44783;-75
2021/07/31 12:50:45;;;;;;;;;5.00;5.00;;;;;;;;5145775;27;47550;-75
2021/07/31 12:53:12;;;;;;;;;4.00;4.00;;;;;;;;5153757;27;45302;-75
2021/07/31 12:55:37;;;;;;;;;3.00;3.00;;;;;;;;5156630;27;45291;-76
2021/07/31 12:58:02;;;;;;;;;2.00;2.00;;;;;;;;5159163;27;47235;-75
2021/07/31 13:00:28;;;;;;;;;2.67;2.67;;;;;;;;5162180;27;45487;-75
2021/07/31 13:02:54;;;;;;;;;2.33;2.33;;;;;;;;5160725;27;45350;-75
2021/07/31 13:05:19;;;;;;;;;3.00;2.67;;;;;;;;5164750;27;45028;-75
2021/07/31 13:07:44;;;;;;;;;5.00;3.00;;;;;;;;5163754;27;44725;-75
2021/07/31 13:10:10;;;;;;;;;3.00;2.00;;;;;;;;5162452;27;45023;-76
2021/07/31 13:12:35;;;;;;;;;3.33;2.67;;;;;;;;5159106;27;45227;-75
2021/07/31 13:15:00;;;;;;;;;5.00;4.00;;;;;;;;5150153;27;45312;-75
2021/07/31 13:17:26;;;;;;;;;3.33;3.33;;;;;;;;5160306;27;45415;-76
2021/07/31 13:19:51;;;;;;;;;3.67;3.67;;;;;;;;5161443;27;46016;-75
2021/07/31 13:22:16;;;;;;;;;3.67;3.33;;;;;;;;5163149;27;44607;-75
2021/07/31 13:24:41;;;;;;;;;3.67;3.67;;;;;;;;5155727;27;44634;-76
2021/07/31 13:27:07;;;;;;;;;2.33;2.33;;;;;;;;5161853;27;45965;-75
2021/07/31 13:29:32;;;;;;;;;4.00;4.00;;;;;;;;5160018;27;48611;-76
2021/07/31 13:31:58;;;;;;;;;2.33;2.33;;;;;;;;5163660;27;44593;-75
2021/07/31 13:34:23;;;;;;;;;2.00;2.00;;;;;;;;5159427;27;45216;-75
2021/07/31 13:36:50;;;;;;;;;3.67;3.00;;;;;;;;5160849;27;45535;-75
2021/07/31 13:39:20;;;;;;;;;4.00;2.00;;;;;;;;5162268;27;45260;-75
2021/07/31 13:41:45;;;;;;;;;2.67;2.33;;;;;;;;5163875;27;45947;-75
2021/07/31 13:44:14;;;;;;;;;2.00;2.00;;;;;;;;5163398;27;44748;-75
2021/07/31 13:46:40;;;;;;;;;2.67;2.67;;;;;;;;5162783;27;47401;-75
2021/07/31 13:49:05;;;;;;;;;2.00;2.00;;;;;;;;5161025;27;46486;-75
2021/07/31 13:51:30;;;;;;;;;1.00;1.00;;;;;;;;5163861;27;44828;-74
2021/07/31 13:53:56;;;;;;;;;2.33;2.33;;;;;;;;5164280;27;44634;-75
2021/07/31 13:56:22;;;;;;;;;2.67;2.67;;;;;;;;5157144;27;47096;-75
2021/07/31 13:58:47;;;;;;;;;3.00;3.00;;;;;;;;5162669;27;46566;-75
2021/07/31 14:01:12;;;;;;;;;2.33;2.00;;;;;;;;5160369;27;44709;-75
2021/07/31 14:03:41;;;;;;;;;2.00;2.00;;;;;;;;5153819;27;44601;-75
2021/07/31 14:06:06;;;;;;;;;3.67;2.33;;;;;;;;5159951;27;45247;-75
2021/07/31 14:08:31;;;;;;;;;3.00;2.33;;;;;;;;5162862;27;46217;-75
2021/07/31 14:10:56;;;;;;;;;2.67;2.67;;;;;;;;5160302;27;45151;-75
2021/07/31 14:13:22;;;;;;;;;3.33;3.33;;;;;;;;5159758;27;45166;-76
2021/07/31 14:15:47;;;;;;;;;3.33;3.00;;;;;;;;5154942;27;45574;-75
2021/07/31 14:18:12;;;;;;;;;3.00;3.00;;;;;;;;5166266;27;46499;-76
2021/07/31 14:20:38;;;;;;;;;3.33;3.33;;;;;;;;5165617;27;45355;-75
2021/07/31 14:23:03;;;;;;;;;3.67;2.67;;;;;;;;5164433;27;45242;-75
2021/07/31 14:25:30;;;;;;;;;3.67;3.67;;;;;;;;5166696;27;44962;-76
2021/07/31 14:27:55;;;;;;;;;4.00;4.00;;;;;;;;5164744;27;46020;-76
2021/07/31 14:30:20;;;;;;;;;5.00;3.00;;;;;;;;5157474;27;45327;-76
2021/07/31 14:32:46;;;;;;;;;3.00;3.00;;;;;;;;5138376;27;45285;-75
2021/07/31 14:35:14;;;;;;;;;3.00;3.00;;;;;;;;5138672;27;44857;-75
2021/07/31 14:37:39;;;;;;;;;2.33;2.33;;;;;;;;5142601;27;45058;-75
2021/07/31 14:40:04;;;;;;;;;2.33;1.67;;;;;;;;5144122;27;45274;-75